Itumirim, Brazil
Current Conditions -  °F | °C
As of 3:00 PM on Monday 20 Oct 2014 (Local Time) from SBBQ Reporting Station
Broken Clouds Broken Clouds  
Wind Chill: 82°   Ceiling: 10000
Heat Index: 82°   Visibility: 6mi
Dew Point: 57°   Wind: 7mph
Humidity: 42%   Direction: 190°S
Pressure: 30.06"   Gusts: NA
Location:  21.32°S, 44.87°W
Report Text: SBBQ 201800Z 19006KT 9999 FEW045 FEW050TCU BKN100 28/14 Q1018
Loading
Personal Weather Stations






























Interactive Weather Map
Tropical Storm Tracking
New forecast layout! Learn more

10-Day Weather Forecast

Advertisements
Track Severe Weather on mobile